Farmville, Virginia
Current Conditions -  °F | °C
As of 1:15 AM on Friday 19 Dec 2014 (Local Time) from KFVX Reporting Station
Overcast Overcast  
Wind Chill: 35°   Ceiling: 10000
Heat Index: 35°   Visibility: 10mi
Dew Point: 26°   Wind: 0mph
Humidity: 72%   Direction: NA
Pressure: 30.1"   Gusts: NA
Location:  37.3°N, 78.39°W
Report Text: KFVX 190615Z AUTO 00000KT 10SM OVC100 01/M03 A3010 RMK AO2 T00141031
Loading
Personal Weather Stations






























Interactive Weather Map New forecast layout! Learn more

10-Day Weather Forecast

Advertisements
Track Severe Weather on mobile